Gibson, Missouri
Current Conditions -  °F | °C
As of 2:53 AM on Sunday 21 Dec 2014 (Local Time) from KPOF Reporting Station
Overcast Overcast  
Wind Chill: 39°   Ceiling: 2600
Heat Index: 39°   Visibility: 10mi
Dew Point: 31°   Wind: 0mph
Humidity: 73%   Direction: NA
Pressure: 30.24"   Gusts: NA
Location:  36.44°N, 90.03°W
Report Text: KPOF 210853Z AUTO 00000KT 10SM OVC026 04/M01 A3024 RMK AO2 SLP244 T00391006 57004
Loading
Personal Weather Stations






























Interactive Weather Map New forecast layout! Learn more

10-Day Weather Forecast

Advertisements
Track Severe Weather on mobile